sensor_id;sensor_type;location;lat;lon;timestamp;pressure;altitude;pressure_sealevel;temperature;humidity
43420;BME280;29017;51.514;-0.178;2023-05-15T00:00:06;101278.56;;;17.58;68.31
43420;BME280;29017;51.514;-0.178;2023-05-15T00:02:37;101277.41;;;17.60;70.10
43420;BME280;29017;51.514;-0.178;2023-05-15T00:05:06;101278.78;;;17.56;67.37
43420;BME280;29017;51.514;-0.178;2023-05-15T00:07:34;101276.47;;;17.53;66.93
43420;BME280;29017;51.514;-0.178;2023-05-15T00:10:02;101275.00;;;17.50;67.38
43420;BME280;29017;51.514;-0.178;2023-05-15T00:12:29;101274.56;;;17.47;68.13
43420;BME280;29017;51.514;-0.178;2023-05-15T00:14:56;101270.25;;;17.46;68.29
43420;BME280;29017;51.514;-0.178;2023-05-15T00:17:24;101276.59;;;17.45;68.13
43420;BME280;29017;51.514;-0.178;2023-05-15T00:19:52;101264.47;;;17.42;68.62
43420;BME280;29017;51.514;-0.178;2023-05-15T00:22:24;101270.81;;;17.41;69.04
43420;BME280;29017;51.514;-0.178;2023-05-15T00:24:52;101264.84;;;17.39;68.68
43420;BME280;29017;51.514;-0.178;2023-05-15T00:27:19;101268.34;;;17.40;69.07
43420;BME280;29017;51.514;-0.178;2023-05-15T00:29:46;101272.00;;;17.39;68.67
43420;BME280;29017;51.514;-0.178;2023-05-15T00:32:14;101258.69;;;17.39;68.88
43420;BME280;29017;51.514;-0.178;2023-05-15T00:34:41;101273.00;;;17.38;68.98
43420;BME280;29017;51.514;-0.178;2023-05-15T00:37:08;101260.75;;;17.37;69.06
43420;BME280;29017;51.514;-0.178;2023-05-15T00:39:36;101272.75;;;17.33;69.25
43420;BME280;29017;51.514;-0.178;2023-05-15T00:42:03;101273.69;;;17.25;69.58
43420;BME280;29017;51.514;-0.178;2023-05-15T00:44:32;101269.75;;;17.21;69.81
43420;BME280;29017;51.514;-0.178;2023-05-15T00:47:01;101281.38;;;17.20;70.02
43420;BME280;29017;51.514;-0.178;2023-05-15T00:49:30;101278.28;;;17.17;69.76
43420;BME280;29017;51.514;-0.178;2023-05-15T00:52:00;101275.53;;;17.10;70.28
43420;BME280;29017;51.514;-0.178;2023-05-15T00:54:29;101275.09;;;17.06;70.29
43420;BME280;29017;51.514;-0.178;2023-05-15T00:56:58;101280.56;;;17.05;70.21
43420;BME280;29017;51.514;-0.178;2023-05-15T00:59:27;101280.47;;;16.98;70.67
43420;BME280;29017;51.514;-0.178;2023-05-15T01:01:54;101283.03;;;16.92;71.62
43420;BME280;29017;51.514;-0.178;2023-05-15T01:04:22;101281.56;;;16.89;71.75
43420;BME280;29017;51.514;-0.178;2023-05-15T01:06:49;101279.91;;;16.88;71.75
43420;BME280;29017;51.514;-0.178;2023-05-15T01:09:22;101296.03;;;16.87;72.15
43420;BME280;29017;51.514;-0.178;2023-05-15T01:11:53;101296.03;;;16.87;72.94
43420;BME280;29017;51.514;-0.178;2023-05-15T01:14:20;101298.06;;;16.85;74.47
43420;BME280;29017;51.514;-0.178;2023-05-15T01:16:47;101288.00;;;16.80;75.26
43420;BME280;29017;51.514;-0.178;2023-05-15T01:19:15;101294.84;;;16.75;76.15
43420;BME280;29017;51.514;-0.178;2023-05-15T01:24:48;101286.66;;;16.61;76.35
43420;BME280;29017;51.514;-0.178;2023-05-15T01:32:31;101282.78;;;16.49;77.71
43420;BME280;29017;51.514;-0.178;2023-05-15T01:35:09;101279.84;;;16.44;78.49
43420;BME280;29017;51.514;-0.178;2023-05-15T01:37:43;101285.97;;;16.45;77.99
43420;BME280;29017;51.514;-0.178;2023-05-15T01:40:17;101285.16;;;16.44;77.82
43420;BME280;29017;51.514;-0.178;2023-05-15T01:42:53;101281.22;;;16.40;77.45
43420;BME280;29017;51.514;-0.178;2023-05-15T01:45:23;101275.69;;;16.42;78.18
43420;BME280;29017;51.514;-0.178;2023-05-15T01:47:53;101282.84;;;16.41;77.78
43420;BME280;29017;51.514;-0.178;2023-05-15T01:50:22;101280.72;;;16.37;78.54
43420;BME280;29017;51.514;-0.178;2023-05-15T01:52:52;101270.47;;;16.34;78.99
43420;BME280;29017;51.514;-0.178;2023-05-15T01:55:21;101272.66;;;16.30;78.13
43420;BME280;29017;51.514;-0.178;2023-05-15T01:57:51;101268.69;;;16.26;78.05
43420;BME280;29017;51.514;-0.178;2023-05-15T02:00:19;101262.47;;;16.19;78.28
43420;BME280;29017;51.514;-0.178;2023-05-15T02:02:48;101259.22;;;16.09;78.18
43420;BME280;29017;51.514;-0.178;2023-05-15T02:05:16;101256.75;;;16.07;78.48
43420;BME280;29017;51.514;-0.178;2023-05-15T02:07:44;101257.28;;;16.03;78.85
43420;BME280;29017;51.514;-0.178;2023-05-15T02:10:13;101259.47;;;15.99;79.26
43420;BME280;29017;51.514;-0.178;2023-05-15T02:12:41;101257.16;;;15.96;79.02
43420;BME280;29017;51.514;-0.178;2023-05-15T02:15:09;101270.78;;;15.93;79.42
43420;BME280;29017;51.514;-0.178;2023-05-15T02:17:37;101274.13;;;15.87;79.34
43420;BME280;29017;51.514;-0.178;2023-05-15T02:20:06;101285.13;;;15.84;79.96
43420;BME280;29017;51.514;-0.178;2023-05-15T02:22:34;101286.13;;;15.83;80.44
43420;BME280;29017;51.514;-0.178;2023-05-15T02:25:01;101281.63;;;15.83;81.53
43420;BME280;29017;51.514;-0.178;2023-05-15T02:32:52;101278.97;;;15.83;81.40
43420;BME280;29017;51.514;-0.178;2023-05-15T02:37:55;101276.06;;;15.70;81.15
43420;BME280;29017;51.514;-0.178;2023-05-15T02:40:24;101275.28;;;15.62;82.45
43420;BME280;29017;51.514;-0.178;2023-05-15T02:42:54;101289.25;;;15.56;82.99
43420;BME280;29017;51.514;-0.178;2023-05-15T02:45:22;101288.91;;;15.51;83.70
43420;BME280;29017;51.514;-0.178;2023-05-15T02:47:51;101301.53;;;15.49;83.77
43420;BME280;29017;51.514;-0.178;2023-05-15T02:50:19;101299.38;;;15.44;84.78
43420;BME280;29017;51.514;-0.178;2023-05-15T02:52:46;101301.38;;;15.42;85.58
43420;BME280;29017;51.514;-0.178;2023-05-15T02:55:14;101304.03;;;15.42;85.82
43420;BME280;29017;51.514;-0.178;2023-05-15T02:57:41;101307.69;;;15.41;85.65
43420;BME280;29017;51.514;-0.178;2023-05-15T03:00:09;101316.31;;;15.43;85.52
43420;BME280;29017;51.514;-0.178;2023-05-15T03:02:39;101309.97;;;15.44;86.08
43420;BME280;29017;51.514;-0.178;2023-05-15T03:05:07;101315.13;;;15.46;86.49
43420;BME280;29017;51.514;-0.178;2023-05-15T03:07:34;101314.97;;;15.47;86.71
43420;BME280;29017;51.514;-0.178;2023-05-15T03:10:01;101319.91;;;15.50;86.40
43420;BME280;29017;51.514;-0.178;2023-05-15T03:12:29;101310.47;;;15.48;85.44
43420;BME280;29017;51.514;-0.178;2023-05-15T03:14:56;101316.13;;;15.45;85.54
43420;BME280;29017;51.514;-0.178;2023-05-15T03:17:23;101313.47;;;15.45;85.49
43420;BME280;29017;51.514;-0.178;2023-05-15T03:19:50;101313.66;;;15.43;85.70
43420;BME280;29017;51.514;-0.178;2023-05-15T03:22:18;101314.81;;;15.40;86.38
43420;BME280;29017;51.514;-0.178;2023-05-15T03:24:45;101308.88;;;15.38;86.89
43420;BME280;29017;51.514;-0.178;2023-05-15T03:27:12;101315.69;;;15.33;86.52
43420;BME280;29017;51.514;-0.178;2023-05-15T03:29:41;101309.25;;;15.19;86.98
43420;BME280;29017;51.514;-0.178;2023-05-15T03:32:09;101301.69;;;15.08;86.87
43420;BME280;29017;51.514;-0.178;2023-05-15T03:34:36;101299.25;;;14.90;86.96
43420;BME280;29017;51.514;-0.178;2023-05-15T03:37:06;101294.28;;;14.87;88.40
43420;BME280;29017;51.514;-0.178;2023-05-15T03:39:33;101296.47;;;14.76;89.28
43420;BME280;29017;51.514;-0.178;2023-05-15T03:42:01;101296.81;;;14.73;90.11
43420;BME280;29017;51.514;-0.178;2023-05-15T03:44:28;101299.13;;;14.68;91.08
43420;BME280;29017;51.514;-0.178;2023-05-15T03:46:56;101305.56;;;14.65;91.99
43420;BME280;29017;51.514;-0.178;2023-05-15T03:49:23;101304.59;;;14.66;92.07
43420;BME280;29017;51.514;-0.178;2023-05-15T03:51:50;101305.56;;;14.65;91.55
43420;BME280;29017;51.514;-0.178;2023-05-15T03:54:18;101316.16;;;14.65;92.00
43420;BME280;29017;51.514;-0.178;2023-05-15T03:56:45;101308.56;;;14.62;92.08
43420;BME280;29017;51.514;-0.178;2023-05-15T03:59:12;101312.38;;;14.60;92.37
43420;BME280;29017;51.514;-0.178;2023-05-15T04:01:40;101314.19;;;14.59;93.08
43420;BME280;29017;51.514;-0.178;2023-05-15T04:04:27;101329.25;;;14.59;93.89
43420;BME280;29017;51.514;-0.178;2023-05-15T04:06:54;101329.44;;;14.57;93.48
43420;BME280;29017;51.514;-0.178;2023-05-15T04:09:22;101326.94;;;14.55;94.12
43420;BME280;29017;51.514;-0.178;2023-05-15T04:11:49;101334.06;;;14.55;93.99
43420;BME280;29017;51.514;-0.178;2023-05-15T04:14:16;101341.84;;;14.57;93.98
43420;BME280;29017;51.514;-0.178;2023-05-15T04:16:43;101336.84;;;14.53;94.00
43420;BME280;29017;51.514;-0.178;2023-05-15T04:19:11;101345.00;;;14.52;94.23
43420;BME280;29017;51.514;-0.178;2023-05-15T04:21:38;101349.13;;;14.54;93.70
43420;BME280;29017;51.514;-0.178;2023-05-15T04:24:06;101353.25;;;14.49;92.96
43420;BME280;29017;51.514;-0.178;2023-05-15T04:26:34;101358.06;;;14.45;91.96
43420;BME280;29017;51.514;-0.178;2023-05-15T04:29:02;101355.91;;;14.41;92.71
43420;BME280;29017;51.514;-0.178;2023-05-15T04:31:30;101354.59;;;14.37;92.93
43420;BME280;29017;51.514;-0.178;2023-05-15T04:33:58;101358.84;;;14.30;92.42
43420;BME280;29017;51.514;-0.178;2023-05-15T04:36:25;101361.63;;;14.28;93.06
43420;BME280;29017;51.514;-0.178;2023-05-15T04:38:53;101360.16;;;14.26;93.46
43420;BME280;29017;51.514;-0.178;2023-05-15T04:41:20;101366.59;;;14.23;92.91
43420;BME280;29017;51.514;-0.178;2023-05-15T04:43:48;101367.75;;;14.21;93.43
43420;BME280;29017;51.514;-0.178;2023-05-15T04:46:15;101366.25;;;14.18;92.34
43420;BME280;29017;51.514;-0.178;2023-05-15T04:48:42;101374.53;;;14.15;91.99
43420;BME280;29017;51.514;-0.178;2023-05-15T04:51:10;101372.19;;;14.12;91.99
43420;BME280;29017;51.514;-0.178;2023-05-15T04:53:38;101371.69;;;14.08;91.91
43420;BME280;29017;51.514;-0.178;2023-05-15T04:56:05;101374.69;;;14.05;91.95
43420;BME280;29017;51.514;-0.178;2023-05-15T04:58:32;101375.81;;;13.95;88.63
43420;BME280;29017;51.514;-0.178;2023-05-15T05:01:00;101377.94;;;13.91;88.94
43420;BME280;29017;51.514;-0.178;2023-05-15T05:03:29;101378.09;;;13.90;90.07
43420;BME280;29017;51.514;-0.178;2023-05-15T05:05:57;101378.06;;;13.82;88.83
43420;BME280;29017;51.514;-0.178;2023-05-15T05:08:24;101382.69;;;13.80;89.13
43420;BME280;29017;51.514;-0.178;2023-05-15T05:10:55;101389.66;;;13.81;90.21
43420;BME280;29017;51.514;-0.178;2023-05-15T05:13:23;101385.50;;;13.78;90.74
43420;BME280;29017;51.514;-0.178;2023-05-15T05:15:50;101387.16;;;13.79;91.52
43420;BME280;29017;51.514;-0.178;2023-05-15T05:18:18;101389.13;;;13.77;90.11
43420;BME280;29017;51.514;-0.178;2023-05-15T05:20:45;101396.22;;;13.77;90.01
43420;BME280;29017;51.514;-0.178;2023-05-15T05:23:13;101399.88;;;13.76;90.12
43420;BME280;29017;51.514;-0.178;2023-05-15T05:25:41;101411.28;;;13.76;88.48
43420;BME280;29017;51.514;-0.178;2023-05-15T05:28:08;101399.53;;;13.70;87.66
43420;BME280;29017;51.514;-0.178;2023-05-15T05:30:35;101404.13;;;13.68;88.19
43420;BME280;29017;51.514;-0.178;2023-05-15T05:33:03;101415.41;;;13.70;89.86
43420;BME280;29017;51.514;-0.178;2023-05-15T05:35:30;101417.22;;;13.70;88.69
43420;BME280;29017;51.514;-0.178;2023-05-15T05:37:58;101418.19;;;13.69;89.05
43420;BME280;29017;51.514;-0.178;2023-05-15T05:40:25;101420.69;;;13.70;89.16
43420;BME280;29017;51.514;-0.178;2023-05-15T05:42:52;101413.06;;;13.67;89.54
43420;BME280;29017;51.514;-0.178;2023-05-15T05:45:20;101420.00;;;13.68;89.79
43420;BME280;29017;51.514;-0.178;2023-05-15T05:47:47;101418.53;;;13.66;90.22
43420;BME280;29017;51.514;-0.178;2023-05-15T05:50:15;101416.69;;;13.66;91.13
43420;BME280;29017;51.514;-0.178;2023-05-15T05:52:42;101422.66;;;13.68;88.52
43420;BME280;29017;51.514;-0.178;2023-05-15T05:55:10;101418.53;;;13.66;88.70
43420;BME280;29017;51.514;-0.178;2023-05-15T05:57:37;101423.97;;;13.64;87.29
43420;BME280;29017;51.514;-0.178;2023-05-15T06:00:06;101426.75;;;13.63;86.96
43420;BME280;29017;51.514;-0.178;2023-05-15T06:02:36;101433.56;;;13.65;88.12
43420;BME280;29017;51.514;-0.178;2023-05-15T06:05:05;101437.53;;;13.69;87.91
43420;BME280;29017;51.514;-0.178;2023-05-15T06:07:34;101428.28;;;13.65;86.54
43420;BME280;29017;51.514;-0.178;2023-05-15T06:10:01;101441.63;;;13.64;86.06
43420;BME280;29017;51.514;-0.178;2023-05-15T06:12:29;101436.81;;;13.59;84.82
43420;BME280;29017;51.514;-0.178;2023-05-15T06:14:57;101433.19;;;13.60;85.38
43420;BME280;29017;51.514;-0.178;2023-05-15T06:17:24;101444.06;;;13.57;82.52
43420;BME280;29017;51.514;-0.178;2023-05-15T06:19:53;101444.06;;;13.57;82.02
43420;BME280;29017;51.514;-0.178;2023-05-15T06:22:20;101442.25;;;13.58;81.49
43420;BME280;29017;51.514;-0.178;2023-05-15T06:24:48;101447.88;;;13.55;80.50
43420;BME280;29017;51.514;-0.178;2023-05-15T06:27:15;101441.75;;;13.54;79.47
43420;BME280;29017;51.514;-0.178;2023-05-15T06:29:42;101451.66;;;13.52;78.10
43420;BME280;29017;51.514;-0.178;2023-05-15T06:32:10;101461.94;;;13.55;76.25
43420;BME280;29017;51.514;-0.178;2023-05-15T06:34:37;101458.97;;;13.58;76.49
43420;BME280;29017;51.514;-0.178;2023-05-15T06:37:04;101459.66;;;13.60;76.27
43420;BME280;29017;51.514;-0.178;2023-05-15T06:39:32;101455.84;;;13.63;76.57
43420;BME280;29017;51.514;-0.178;2023-05-15T06:41:59;101456.53;;;13.65;75.96
43420;BME280;29017;51.514;-0.178;2023-05-15T06:44:29;101462.66;;;13.65;73.45
43420;BME280;29017;51.514;-0.178;2023-05-15T06:46:57;101459.34;;;13.71;73.52
43420;BME280;29017;51.514;-0.178;2023-05-15T06:49:26;101467.50;;;13.78;71.89
43420;BME280;29017;51.514;-0.178;2023-05-15T06:51:54;101477.09;;;13.79;70.62
43420;BME280;29017;51.514;-0.178;2023-05-15T06:54:21;101482.22;;;13.81;70.63
43420;BME280;29017;51.514;-0.178;2023-05-15T06:56:49;101481.56;;;13.79;70.05
43420;BME280;29017;51.514;-0.178;2023-05-15T06:59:16;101484.56;;;13.84;70.43
43420;BME280;29017;51.514;-0.178;2023-05-15T07:01:44;101486.56;;;13.90;70.25
43420;BME280;29017;51.514;-0.178;2023-05-15T07:04:11;101492.69;;;13.90;69.20
43420;BME280;29017;51.514;-0.178;2023-05-15T07:06:42;101493.88;;;13.96;69.73
43420;BME280;29017;51.514;-0.178;2023-05-15T07:09:09;101490.44;;;14.03;69.44
43420;BME280;29017;51.514;-0.178;2023-05-15T07:11:37;101489.31;;;14.06;67.39
43420;BME280;29017;51.514;-0.178;2023-05-15T07:14:05;101488.81;;;14.10;67.24
43420;BME280;29017;51.514;-0.178;2023-05-15T07:16:32;101494.63;;;14.14;66.79
43420;BME280;29017;51.514;-0.178;2023-05-15T07:19:00;101498.13;;;14.23;65.67
43420;BME280;29017;51.514;-0.178;2023-05-15T07:21:27;101495.81;;;14.28;64.89
43420;BME280;29017;51.514;-0.178;2023-05-15T07:23:55;101488.41;;;14.31;65.15
43420;BME280;29017;51.514;-0.178;2023-05-15T07:26:23;101490.72;;;14.34;64.81
43420;BME280;29017;51.514;-0.178;2023-05-15T07:29:04;101500.06;;;14.46;63.98
43420;BME280;29017;51.514;-0.178;2023-05-15T07:31:31;101494.28;;;14.51;64.61
43420;BME280;29017;51.514;-0.178;2023-05-15T07:33:59;101499.97;;;14.72;66.08
43420;BME280;29017;51.514;-0.178;2023-05-15T07:36:27;101489.06;;;15.08;61.83
43420;BME280;29017;51.514;-0.178;2023-05-15T07:38:54;101502.28;;;15.48;60.43
43420;BME280;29017;51.514;-0.178;2023-05-15T07:41:21;101495.47;;;15.70;56.80
43420;BME280;29017;51.514;-0.178;2023-05-15T07:43:49;101503.56;;;15.85;55.82
43420;BME280;29017;51.514;-0.178;2023-05-15T07:46:16;101504.53;;;15.92;56.16
43420;BME280;29017;51.514;-0.178;2023-05-15T07:48:44;101511.41;;;16.17;54.64
43420;BME280;29017;51.514;-0.178;2023-05-15T07:51:12;101508.69;;;16.33;54.79
43420;BME280;29017;51.514;-0.178;2023-05-15T07:53:39;101511.41;;;16.17;54.19
43420;BME280;29017;51.514;-0.178;2023-05-15T07:56:07;101513.16;;;15.94;54.72
43420;BME280;29017;51.514;-0.178;2023-05-15T07:58:34;101524.31;;;15.24;54.30
43420;BME280;29017;51.514;-0.178;2023-05-15T08:01:06;101519.69;;;15.10;58.09
43420;BME280;29017;51.514;-0.178;2023-05-15T08:03:34;101523.66;;;15.06;60.99
43420;BME280;29017;51.514;-0.178;2023-05-15T08:06:02;101526.50;;;15.13;57.79
43420;BME280;29017;51.514;-0.178;2023-05-15T08:08:30;101521.19;;;15.21;57.33
43420;BME280;29017;51.514;-0.178;2023-05-15T08:10:57;101514.38;;;15.43;55.81
43420;BME280;29017;51.514;-0.178;2023-05-15T08:13:25;101515.91;;;15.53;56.70
43420;BME280;29017;51.514;-0.178;2023-05-15T08:15:52;101523.88;;;15.53;56.04
43420;BME280;29017;51.514;-0.178;2023-05-15T08:18:20;101524.84;;;15.52;55.40
43420;BME280;29017;51.514;-0.178;2023-05-15T08:20:48;101526.16;;;15.48;56.26
43420;BME280;29017;51.514;-0.178;2023-05-15T08:23:17;101527.13;;;15.39;55.68
43420;BME280;29017;51.514;-0.178;2023-05-15T08:25:45;101517.88;;;15.35;56.17
43420;BME280;29017;51.514;-0.178;2023-05-15T08:28:12;101526.47;;;15.29;57.01
43420;BME280;29017;51.514;-0.178;2023-05-15T08:30:40;101532.31;;;15.32;56.53
43420;BME280;29017;51.514;-0.178;2023-05-15T08:33:10;101518.72;;;15.27;56.98
43420;BME280;29017;51.514;-0.178;2023-05-15T08:35:37;101524.16;;;15.26;56.80
43420;BME280;29017;51.514;-0.178;2023-05-15T08:38:05;101525.31;;;15.15;56.17
43420;BME280;29017;51.514;-0.178;2023-05-15T08:40:33;101519.53;;;15.12;55.36
43420;BME280;29017;51.514;-0.178;2023-05-15T08:43:11;101530.97;;;15.12;56.58
43420;BME280;29017;51.514;-0.178;2023-05-15T08:45:42;101525.97;;;15.09;54.14
43420;BME280;29017;51.514;-0.178;2023-05-15T08:48:13;101524.16;;;15.02;52.82
43420;BME280;29017;51.514;-0.178;2023-05-15T08:50:43;101528.31;;;14.88;52.43
43420;BME280;29017;51.514;-0.178;2023-05-15T08:53:12;101531.22;;;14.69;54.40
43420;BME280;29017;51.514;-0.178;2023-05-15T08:55:40;101534.41;;;14.72;55.18
43420;BME280;29017;51.514;-0.178;2023-05-15T08:58:08;101530.28;;;14.78;56.57
43420;BME280;29017;51.514;-0.178;2023-05-15T09:00:36;101532.09;;;14.85;54.96
43420;BME280;29017;51.514;-0.178;2023-05-15T09:03:04;101530.47;;;15.01;54.03
43420;BME280;29017;51.514;-0.178;2023-05-15T09:05:31;101525.16;;;15.25;53.04
43420;BME280;29017;51.514;-0.178;2023-05-15T09:08:02;101542.25;;;15.55;51.66
43420;BME280;29017;51.514;-0.178;2023-05-15T09:10:30;101529.78;;;15.71;50.71
43420;BME280;29017;51.514;-0.178;2023-05-15T09:13:00;101536.94;;;15.79;50.78
43420;BME280;29017;51.514;-0.178;2023-05-15T09:15:29;101526.97;;;15.73;49.32
43420;BME280;29017;51.514;-0.178;2023-05-15T09:17:57;101527.50;;;15.68;48.79
43420;BME280;29017;51.514;-0.178;2023-05-15T09:22:55;101526.53;;;15.53;48.51
43420;BME280;29017;51.514;-0.178;2023-05-15T09:27:56;101527.31;;;15.37;48.74
43420;BME280;29017;51.514;-0.178;2023-05-15T09:30:25;101528.13;;;15.30;48.32
43420;BME280;29017;51.514;-0.178;2023-05-15T09:32:58;101530.63;;;15.31;49.50
43420;BME280;29017;51.514;-0.178;2023-05-15T09:37:58;101542.06;;;15.40;48.04
43420;BME280;29017;51.514;-0.178;2023-05-15T09:40:29;101536.44;;;15.43;47.55
43420;BME280;29017;51.514;-0.178;2023-05-15T09:42:57;101537.91;;;15.46;47.48
43420;BME280;29017;51.514;-0.178;2023-05-15T09:45:25;101541.75;;;15.51;47.10
43420;BME280;29017;51.514;-0.178;2023-05-15T09:47:58;101538.13;;;15.52;47.25
43420;BME280;29017;51.514;-0.178;2023-05-15T09:53:00;101543.06;;;15.55;46.48
43420;BME280;29017;51.514;-0.178;2023-05-15T09:55:33;101553.38;;;15.58;43.93
43420;BME280;29017;51.514;-0.178;2023-05-15T10:00:33;101548.19;;;15.65;43.23
43420;BME280;29017;51.514;-0.178;2023-05-15T10:03:02;101543.91;;;15.64;43.08
43420;BME280;29017;51.514;-0.178;2023-05-15T10:05:30;101547.53;;;15.71;43.61
43420;BME280;29017;51.514;-0.178;2023-05-15T10:08:09;101541.56;;;15.77;44.98
43420;BME280;29017;51.514;-0.178;2023-05-15T10:10:38;101548.84;;;15.75;43.89
43420;BME280;29017;51.514;-0.178;2023-05-15T10:13:06;101546.19;;;15.83;45.04
43420;BME280;29017;51.514;-0.178;2023-05-15T10:15:36;101548.69;;;15.85;44.57
43420;BME280;29017;51.514;-0.178;2023-05-15T10:18:05;101548.84;;;15.83;43.46
43420;BME280;29017;51.514;-0.178;2023-05-15T10:20:34;101553.31;;;15.82;43.54
43420;BME280;29017;51.514;-0.178;2023-05-15T10:23:04;101549.69;;;15.75;43.46
43420;BME280;29017;51.514;-0.178;2023-05-15T10:28:08;101543.91;;;15.72;44.85
43420;BME280;29017;51.514;-0.178;2023-05-15T10:30:36;101544.25;;;15.69;44.38
43420;BME280;29017;51.514;-0.178;2023-05-15T10:33:05;101542.75;;;15.74;44.37
43420;BME280;29017;51.514;-0.178;2023-05-15T10:35:33;101529.31;;;15.68;44.68
43420;BME280;29017;51.514;-0.178;2023-05-15T10:38:03;101545.06;;;15.69;45.38
43420;BME280;29017;51.514;-0.178;2023-05-15T10:40:32;101536.25;;;15.77;45.31
43420;BME280;29017;51.514;-0.178;2023-05-15T10:43:02;101533.91;;;15.82;45.93
43420;BME280;29017;51.514;-0.178;2023-05-15T10:45:31;101547.03;;;15.75;46.08
43420;BME280;29017;51.514;-0.178;2023-05-15T10:48:00;101547.22;;;15.58;45.07
43420;BME280;29017;51.514;-0.178;2023-05-15T10:50:28;101539.25;;;15.66;46.14
43420;BME280;29017;51.514;-0.178;2023-05-15T10:52:56;101568.75;;;15.71;46.01
43420;BME280;29017;51.514;-0.178;2023-05-15T10:55:24;101550.88;;;15.73;46.39
43420;BME280;29017;51.514;-0.178;2023-05-15T10:57:51;101559.31;;;15.76;46.83
43420;BME280;29017;51.514;-0.178;2023-05-15T11:02:51;101565.94;;;15.80;46.36
43420;BME280;29017;51.514;-0.178;2023-05-15T11:08:24;101558.16;;;15.47;46.23
43420;BME280;29017;51.514;-0.178;2023-05-15T11:10:54;101556.03;;;15.58;47.99
43420;BME280;29017;51.514;-0.178;2023-05-15T11:13:24;101564.28;;;15.71;48.36
43420;BME280;29017;51.514;-0.178;2023-05-15T11:15:52;101554.00;;;15.85;48.00
43420;BME280;29017;51.514;-0.178;2023-05-15T11:18:20;101552.31;;;15.92;47.66
43420;BME280;29017;51.514;-0.178;2023-05-15T11:23:21;101559.69;;;16.20;47.66
43420;BME280;29017;51.514;-0.178;2023-05-15T11:25:52;101564.19;;;16.20;47.19
43420;BME280;29017;51.514;-0.178;2023-05-15T11:28:22;101576.97;;;16.16;47.15
43420;BME280;29017;51.514;-0.178;2023-05-15T11:30:52;101563.38;;;16.11;46.68
43420;BME280;29017;51.514;-0.178;2023-05-15T11:33:20;101571.00;;;16.14;47.62
43420;BME280;29017;51.514;-0.178;2023-05-15T11:35:56;101585.75;;;16.17;47.60
43420;BME280;29017;51.514;-0.178;2023-05-15T11:38:25;101572.47;;;16.25;48.22
43420;BME280;29017;51.514;-0.178;2023-05-15T11:40:56;101580.75;;;16.30;47.71
43420;BME280;29017;51.514;-0.178;2023-05-15T11:43:35;101577.78;;;16.25;46.27
43420;BME280;29017;51.514;-0.178;2023-05-15T11:48:32;101574.25;;;16.33;46.78
43420;BME280;29017;51.514;-0.178;2023-05-15T11:51:14;101571.56;;;16.41;47.71
43420;BME280;29017;51.514;-0.178;2023-05-15T11:53:42;101564.47;;;16.33;48.13
43420;BME280;29017;51.514;-0.178;2023-05-15T11:58:47;101578.78;;;16.16;48.68
43420;BME280;29017;51.514;-0.178;2023-05-15T12:01:15;101582.16;;;16.02;49.00
43420;BME280;29017;51.514;-0.178;2023-05-15T12:03:46;101582.03;;;15.79;49.32
43420;BME280;29017;51.514;-0.178;2023-05-15T12:06:14;101571.44;;;15.79;49.45
43420;BME280;29017;51.514;-0.178;2023-05-15T12:08:42;101581.34;;;15.93;49.45
43420;BME280;29017;51.514;-0.178;2023-05-15T12:11:11;101579.16;;;15.97;49.44
43420;BME280;29017;51.514;-0.178;2023-05-15T12:13:38;101586.00;;;15.83;50.16
43420;BME280;29017;51.514;-0.178;2023-05-15T12:16:06;101581.03;;;15.80;50.39
43420;BME280;29017;51.514;-0.178;2023-05-15T12:18:34;101596.97;;;15.72;50.33
43420;BME280;29017;51.514;-0.178;2023-05-15T12:21:03;101584.50;;;15.80;48.48
43420;BME280;29017;51.514;-0.178;2023-05-15T12:23:32;101591.97;;;15.93;47.20
43420;BME280;29017;51.514;-0.178;2023-05-15T12:26:01;101578.50;;;16.03;47.05
43420;BME280;29017;51.514;-0.178;2023-05-15T12:28:33;101569.50;;;16.12;46.12
43420;BME280;29017;51.514;-0.178;2023-05-15T12:31:05;101580.25;;;16.26;46.21
43420;BME280;29017;51.514;-0.178;2023-05-15T12:33:40;101575.75;;;16.35;46.57
43420;BME280;29017;51.514;-0.178;2023-05-15T12:36:09;101577.91;;;16.40;45.86
43420;BME280;29017;51.514;-0.178;2023-05-15T12:38:36;101588.94;;;16.12;45.93
43420;BME280;29017;51.514;-0.178;2023-05-15T12:41:12;101585.44;;;16.12;46.56
43420;BME280;29017;51.514;-0.178;2023-05-15T12:43:49;101589.28;;;16.01;46.28
43420;BME280;29017;51.514;-0.178;2023-05-15T12:46:21;101588.28;;;16.02;46.49
43420;BME280;29017;51.514;-0.178;2023-05-15T12:48:50;101581.44;;;16.16;45.50
43420;BME280;29017;51.514;-0.178;2023-05-15T12:51:21;101592.19;;;16.31;44.75
43420;BME280;29017;51.514;-0.178;2023-05-15T12:53:51;101590.66;;;16.44;45.04
43420;BME280;29017;51.514;-0.178;2023-05-15T12:56:19;101595.28;;;16.50;45.40
43420;BME280;29017;51.514;-0.178;2023-05-15T12:58:47;101602.06;;;16.53;45.79
43420;BME280;29017;51.514;-0.178;2023-05-15T13:01:15;101594.63;;;16.48;46.22
43420;BME280;29017;51.514;-0.178;2023-05-15T13:03:44;101595.97;;;16.44;47.40
43420;BME280;29017;51.514;-0.178;2023-05-15T13:06:11;101589.16;;;16.42;47.53
43420;BME280;29017;51.514;-0.178;2023-05-15T13:08:41;101602.63;;;16.40;47.42
43420;BME280;29017;51.514;-0.178;2023-05-15T13:11:16;101595.34;;;16.34;47.77
43420;BME280;29017;51.514;-0.178;2023-05-15T13:13:51;101604.03;;;16.20;47.56
43420;BME280;29017;51.514;-0.178;2023-05-15T13:16:21;101591.22;;;16.23;47.75
43420;BME280;29017;51.514;-0.178;2023-05-15T13:18:51;101584.69;;;16.42;47.31
43420;BME280;29017;51.514;-0.178;2023-05-15T13:21:24;101591.59;;;16.51;47.58
43420;BME280;29017;51.514;-0.178;2023-05-15T13:23:53;101589.16;;;16.50;47.60
43420;BME280;29017;51.514;-0.178;2023-05-15T13:26:21;101593.44;;;16.51;48.15
43420;BME280;29017;51.514;-0.178;2023-05-15T13:28:48;101593.63;;;16.49;48.18
43420;BME280;29017;51.514;-0.178;2023-05-15T13:31:16;101594.09;;;16.53;46.84